sensor_id;sensor_type;location;lat;lon;timestamp;temperature;humidity
28548;DHT22;15750;49.600;8.746;2022-07-29T00:02:15;27.10;38.60
28548;DHT22;15750;49.600;8.746;2022-07-29T00:05:03;27.10;38.60
28548;DHT22;15750;49.600;8.746;2022-07-29T00:07:52;27.10;38.70
28548;DHT22;15750;49.600;8.746;2022-07-29T00:10:40;27.20;38.80
28548;DHT22;15750;49.600;8.746;2022-07-29T00:13:27;27.10;39.00
28548;DHT22;15750;49.600;8.746;2022-07-29T00:16:17;27.10;39.10
28548;DHT22;15750;49.600;8.746;2022-07-29T00:19:04;27.10;39.40
28548;DHT22;15750;49.600;8.746;2022-07-29T00:21:52;27.10;39.30
28548;DHT22;15750;49.600;8.746;2022-07-29T00:24:40;27.10;39.40
28548;DHT22;15750;49.600;8.746;2022-07-29T00:27:27;27.10;39.70
28548;DHT22;15750;49.600;8.746;2022-07-29T00:30:15;27.10;39.80
28548;DHT22;15750;49.600;8.746;2022-07-29T00:33:02;27.10;39.70
28548;DHT22;15750;49.600;8.746;2022-07-29T00:35:54;27.10;39.40
28548;DHT22;15750;49.600;8.746;2022-07-29T00:38:42;27.10;39.50
28548;DHT22;15750;49.600;8.746;2022-07-29T00:41:32;27.10;39.70
28548;DHT22;15750;49.600;8.746;2022-07-29T00:44:19;27.00;39.70
28548;DHT22;15750;49.600;8.746;2022-07-29T00:47:07;27.00;39.70
28548;DHT22;15750;49.600;8.746;2022-07-29T00:49:54;27.00;39.70
28548;DHT22;15750;49.600;8.746;2022-07-29T00:52:42;27.00;39.80
28548;DHT22;15750;49.600;8.746;2022-07-29T00:55:30;27.00;39.80
28548;DHT22;15750;49.600;8.746;2022-07-29T00:58:19;26.90;39.70
28548;DHT22;15750;49.600;8.746;2022-07-29T01:01:06;26.90;39.70
28548;DHT22;15750;49.600;8.746;2022-07-29T01:03:53;26.90;39.80
28548;DHT22;15750;49.600;8.746;2022-07-29T01:06:41;26.90;39.90
28548;DHT22;15750;49.600;8.746;2022-07-29T01:09:31;26.90;40.00
28548;DHT22;15750;49.600;8.746;2022-07-29T01:12:32;26.80;40.10
28548;DHT22;15750;49.600;8.746;2022-07-29T01:15:23;26.80;40.20
28548;DHT22;15750;49.600;8.746;2022-07-29T01:18:15;26.80;40.20
28548;DHT22;15750;49.600;8.746;2022-07-29T01:21:25;26.80;40.00
28548;DHT22;15750;49.600;8.746;2022-07-29T01:24:34;26.80;39.80
28548;DHT22;15750;49.600;8.746;2022-07-29T01:27:41;26.80;39.70
28548;DHT22;15750;49.600;8.746;2022-07-29T01:30:36;26.70;39.60
28548;DHT22;15750;49.600;8.746;2022-07-29T01:33:28;26.70;39.70
28548;DHT22;15750;49.600;8.746;2022-07-29T01:36:43;26.70;39.70
28548;DHT22;15750;49.600;8.746;2022-07-29T01:39:36;26.70;39.70
28548;DHT22;15750;49.600;8.746;2022-07-29T01:42:29;26.60;39.80
28548;DHT22;15750;49.600;8.746;2022-07-29T01:45:23;26.60;40.00
28548;DHT22;15750;49.600;8.746;2022-07-29T01:48:18;26.60;40.20
28548;DHT22;15750;49.600;8.746;2022-07-29T01:51:12;26.60;40.50
28548;DHT22;15750;49.600;8.746;2022-07-29T01:54:04;26.60;40.40
28548;DHT22;15750;49.600;8.746;2022-07-29T01:56:56;26.60;40.40
28548;DHT22;15750;49.600;8.746;2022-07-29T01:59:47;26.50;40.30
28548;DHT22;15750;49.600;8.746;2022-07-29T02:02:35;26.50;40.30
28548;DHT22;15750;49.600;8.746;2022-07-29T02:05:27;26.50;40.40
28548;DHT22;15750;49.600;8.746;2022-07-29T02:08:16;26.50;40.40
28548;DHT22;15750;49.600;8.746;2022-07-29T02:11:06;26.50;40.40
28548;DHT22;15750;49.600;8.746;2022-07-29T02:13:56;26.50;40.40
28548;DHT22;15750;49.600;8.746;2022-07-29T02:16:45;26.50;40.40
28548;DHT22;15750;49.600;8.746;2022-07-29T02:19:34;26.40;40.30
28548;DHT22;15750;49.600;8.746;2022-07-29T02:22:27;26.40;40.40
28548;DHT22;15750;49.600;8.746;2022-07-29T02:25:16;26.40;40.50
28548;DHT22;15750;49.600;8.746;2022-07-29T02:28:05;26.40;40.40
28548;DHT22;15750;49.600;8.746;2022-07-29T02:30:55;26.30;40.40
28548;DHT22;15750;49.600;8.746;2022-07-29T02:33:46;26.30;40.60
28548;DHT22;15750;49.600;8.746;2022-07-29T02:36:34;26.30;40.60
28548;DHT22;15750;49.600;8.746;2022-07-29T02:39:24;26.30;40.70
28548;DHT22;15750;49.600;8.746;2022-07-29T02:42:15;26.30;40.80
28548;DHT22;15750;49.600;8.746;2022-07-29T02:45:04;26.30;40.60
28548;DHT22;15750;49.600;8.746;2022-07-29T02:47:53;26.30;40.50
28548;DHT22;15750;49.600;8.746;2022-07-29T02:50:46;26.30;40.60
28548;DHT22;15750;49.600;8.746;2022-07-29T02:53:37;26.20;40.70
28548;DHT22;15750;49.600;8.746;2022-07-29T02:56:28;26.20;40.40
28548;DHT22;15750;49.600;8.746;2022-07-29T02:59:23;26.20;40.60
28548;DHT22;15750;49.600;8.746;2022-07-29T03:02:14;26.20;40.70
28548;DHT22;15750;49.600;8.746;2022-07-29T03:05:03;26.20;40.90
28548;DHT22;15750;49.600;8.746;2022-07-29T03:07:55;26.20;41.00
28548;DHT22;15750;49.600;8.746;2022-07-29T03:10:45;26.20;40.90
28548;DHT22;15750;49.600;8.746;2022-07-29T03:13:35;26.20;40.90
28548;DHT22;15750;49.600;8.746;2022-07-29T03:16:23;26.20;40.90
28548;DHT22;15750;49.600;8.746;2022-07-29T03:19:10;26.10;40.80
28548;DHT22;15750;49.600;8.746;2022-07-29T03:21:58;26.10;40.80
28548;DHT22;15750;49.600;8.746;2022-07-29T03:24:45;26.10;40.80
28548;DHT22;15750;49.600;8.746;2022-07-29T03:27:32;26.10;41.10
28548;DHT22;15750;49.600;8.746;2022-07-29T03:30:23;26.10;41.00
28548;DHT22;15750;49.600;8.746;2022-07-29T03:33:11;26.10;41.20
28548;DHT22;15750;49.600;8.746;2022-07-29T03:35:59;26.10;41.20
28548;DHT22;15750;49.600;8.746;2022-07-29T03:38:48;26.10;41.30
28548;DHT22;15750;49.600;8.746;2022-07-29T03:41:37;26.10;41.20
28548;DHT22;15750;49.600;8.746;2022-07-29T03:44:27;26.10;41.10
28548;DHT22;15750;49.600;8.746;2022-07-29T03:47:20;26.10;41.20
28548;DHT22;15750;49.600;8.746;2022-07-29T03:50:32;26.10;41.20
28548;DHT22;15750;49.600;8.746;2022-07-29T03:53:20;26.10;41.20
28548;DHT22;15750;49.600;8.746;2022-07-29T03:56:09;26.00;41.10
28548;DHT22;15750;49.600;8.746;2022-07-29T03:58:58;26.10;41.00
28548;DHT22;15750;49.600;8.746;2022-07-29T04:01:46;26.00;41.00
28548;DHT22;15750;49.600;8.746;2022-07-29T04:04:35;26.00;41.10
28548;DHT22;15750;49.600;8.746;2022-07-29T04:07:23;26.00;41.00
28548;DHT22;15750;49.600;8.746;2022-07-29T04:10:10;26.00;41.00
28548;DHT22;15750;49.600;8.746;2022-07-29T04:12:58;26.00;40.80
28548;DHT22;15750;49.600;8.746;2022-07-29T04:15:46;26.00;41.00
28548;DHT22;15750;49.600;8.746;2022-07-29T04:18:33;26.00;41.00
28548;DHT22;15750;49.600;8.746;2022-07-29T04:21:23;26.00;41.10
28548;DHT22;15750;49.600;8.746;2022-07-29T04:24:10;26.00;41.30
28548;DHT22;15750;49.600;8.746;2022-07-29T04:26:58;26.00;41.30
28548;DHT22;15750;49.600;8.746;2022-07-29T04:29:46;26.00;41.40
28548;DHT22;15750;49.600;8.746;2022-07-29T04:32:43;26.00;41.50
28548;DHT22;15750;49.600;8.746;2022-07-29T04:35:33;26.00;41.40
28548;DHT22;15750;49.600;8.746;2022-07-29T04:38:24;26.00;41.50
28548;DHT22;15750;49.600;8.746;2022-07-29T04:41:11;26.00;41.70
28548;DHT22;15750;49.600;8.746;2022-07-29T04:44:05;26.00;41.60
28548;DHT22;15750;49.600;8.746;2022-07-29T04:46:53;26.00;41.70
28548;DHT22;15750;49.600;8.746;2022-07-29T04:49:40;26.00;41.80
28548;DHT22;15750;49.600;8.746;2022-07-29T04:52:27;26.00;41.80
28548;DHT22;15750;49.600;8.746;2022-07-29T04:55:16;26.00;41.90
28548;DHT22;15750;49.600;8.746;2022-07-29T04:58:03;26.00;42.10
28548;DHT22;15750;49.600;8.746;2022-07-29T05:00:50;26.00;42.00
28548;DHT22;15750;49.600;8.746;2022-07-29T05:03:37;26.00;42.00
28548;DHT22;15750;49.600;8.746;2022-07-29T05:06:25;26.00;42.00
28548;DHT22;15750;49.600;8.746;2022-07-29T05:09:12;26.00;42.00
28548;DHT22;15750;49.600;8.746;2022-07-29T05:12:01;26.00;42.20
28548;DHT22;15750;49.600;8.746;2022-07-29T05:14:48;26.00;42.30
28548;DHT22;15750;49.600;8.746;2022-07-29T05:17:35;26.00;42.20
28548;DHT22;15750;49.600;8.746;2022-07-29T05:20:23;26.00;42.10
28548;DHT22;15750;49.600;8.746;2022-07-29T05:23:14;26.00;42.10
28548;DHT22;15750;49.600;8.746;2022-07-29T05:26:01;26.00;42.20
28548;DHT22;15750;49.600;8.746;2022-07-29T05:28:49;26.00;42.40
28548;DHT22;15750;49.600;8.746;2022-07-29T05:31:37;26.00;42.50
28548;DHT22;15750;49.600;8.746;2022-07-29T05:34:24;26.10;42.50
28548;DHT22;15750;49.600;8.746;2022-07-29T05:37:12;26.10;42.60
28548;DHT22;15750;49.600;8.746;2022-07-29T05:39:59;26.10;42.70
28548;DHT22;15750;49.600;8.746;2022-07-29T05:42:47;26.10;42.60
28548;DHT22;15750;49.600;8.746;2022-07-29T05:45:35;26.10;42.30
28548;DHT22;15750;49.600;8.746;2022-07-29T05:48:34;26.10;42.00
28548;DHT22;15750;49.600;8.746;2022-07-29T05:51:22;26.20;41.90
28548;DHT22;15750;49.600;8.746;2022-07-29T05:54:09;26.20;41.80
28548;DHT22;15750;49.600;8.746;2022-07-29T05:56:56;26.20;41.80
28548;DHT22;15750;49.600;8.746;2022-07-29T05:59:44;26.20;41.80
28548;DHT22;15750;49.600;8.746;2022-07-29T06:02:32;26.30;41.70
28548;DHT22;15750;49.600;8.746;2022-07-29T06:05:20;26.30;41.60
28548;DHT22;15750;49.600;8.746;2022-07-29T06:08:07;26.30;41.60
28548;DHT22;15750;49.600;8.746;2022-07-29T06:10:54;26.30;41.60
28548;DHT22;15750;49.600;8.746;2022-07-29T06:13:41;26.30;41.60
28548;DHT22;15750;49.600;8.746;2022-07-29T06:16:29;26.30;41.50
28548;DHT22;15750;49.600;8.746;2022-07-29T06:19:17;26.40;41.70
28548;DHT22;15750;49.600;8.746;2022-07-29T06:22:05;26.40;41.80
28548;DHT22;15750;49.600;8.746;2022-07-29T06:24:52;26.40;41.80
28548;DHT22;15750;49.600;8.746;2022-07-29T06:27:39;26.40;41.80
28548;DHT22;15750;49.600;8.746;2022-07-29T06:30:27;26.50;41.90
28548;DHT22;15750;49.600;8.746;2022-07-29T06:33:18;26.50;41.90
28548;DHT22;15750;49.600;8.746;2022-07-29T06:36:08;26.50;41.90
28548;DHT22;15750;49.600;8.746;2022-07-29T06:38:56;26.50;41.90
28548;DHT22;15750;49.600;8.746;2022-07-29T06:41:47;26.50;41.90
28548;DHT22;15750;49.600;8.746;2022-07-29T06:44:35;26.60;42.00
28548;DHT22;15750;49.600;8.746;2022-07-29T06:47:22;26.60;42.00
28548;DHT22;15750;49.600;8.746;2022-07-29T06:50:09;26.60;42.00
28548;DHT22;15750;49.600;8.746;2022-07-29T06:52:59;26.70;42.10
28548;DHT22;15750;49.600;8.746;2022-07-29T06:55:46;26.70;42.20
28548;DHT22;15750;49.600;8.746;2022-07-29T06:58:34;26.80;42.50
28548;DHT22;15750;49.600;8.746;2022-07-29T07:01:21;26.80;42.50
28548;DHT22;15750;49.600;8.746;2022-07-29T07:04:09;26.80;42.70
28548;DHT22;15750;49.600;8.746;2022-07-29T07:06:57;26.80;42.70
28548;DHT22;15750;49.600;8.746;2022-07-29T07:10:19;26.90;42.80
28548;DHT22;15750;49.600;8.746;2022-07-29T07:13:30;26.90;42.80
28548;DHT22;15750;49.600;8.746;2022-07-29T07:16:21;27.00;42.80
28548;DHT22;15750;49.600;8.746;2022-07-29T07:19:08;27.00;42.90
28548;DHT22;15750;49.600;8.746;2022-07-29T07:21:58;27.00;43.00
28548;DHT22;15750;49.600;8.746;2022-07-29T07:24:48;27.00;43.10
28548;DHT22;15750;49.600;8.746;2022-07-29T07:27:37;27.10;43.10
28548;DHT22;15750;49.600;8.746;2022-07-29T07:30:24;27.10;43.30
28548;DHT22;15750;49.600;8.746;2022-07-29T07:33:13;27.10;43.40
28548;DHT22;15750;49.600;8.746;2022-07-29T07:36:00;27.10;43.40
28548;DHT22;15750;49.600;8.746;2022-07-29T07:38:47;27.10;43.40
28548;DHT22;15750;49.600;8.746;2022-07-29T07:41:35;27.10;43.60
28548;DHT22;15750;49.600;8.746;2022-07-29T07:44:23;27.20;43.70
28548;DHT22;15750;49.600;8.746;2022-07-29T07:47:11;27.20;43.80
28548;DHT22;15750;49.600;8.746;2022-07-29T07:49:59;27.20;44.00
28548;DHT22;15750;49.600;8.746;2022-07-29T07:52:48;27.20;44.00
28548;DHT22;15750;49.600;8.746;2022-07-29T07:55:40;27.20;44.10
28548;DHT22;15750;49.600;8.746;2022-07-29T07:58:47;27.30;44.30
28548;DHT22;15750;49.600;8.746;2022-07-29T08:01:36;27.30;45.30
28548;DHT22;15750;49.600;8.746;2022-07-29T08:04:41;27.30;44.80
28548;DHT22;15750;49.600;8.746;2022-07-29T08:07:28;27.40;45.10
28548;DHT22;15750;49.600;8.746;2022-07-29T08:10:16;27.40;45.00
28548;DHT22;15750;49.600;8.746;2022-07-29T08:13:27;27.40;45.20
28548;DHT22;15750;49.600;8.746;2022-07-29T08:16:15;27.40;45.20
28548;DHT22;15750;49.600;8.746;2022-07-29T08:19:04;27.50;45.40
28548;DHT22;15750;49.600;8.746;2022-07-29T08:21:51;27.50;45.80
28548;DHT22;15750;49.600;8.746;2022-07-29T08:24:39;27.50;45.40
28548;DHT22;15750;49.600;8.746;2022-07-29T08:27:29;27.50;45.60
28548;DHT22;15750;49.600;8.746;2022-07-29T08:30:28;27.50;45.60
28548;DHT22;15750;49.600;8.746;2022-07-29T08:33:15;27.60;45.60
28548;DHT22;15750;49.600;8.746;2022-07-29T08:36:05;27.60;45.80
28548;DHT22;15750;49.600;8.746;2022-07-29T08:38:53;27.60;46.20
28548;DHT22;15750;49.600;8.746;2022-07-29T08:41:40;27.60;45.90
28548;DHT22;15750;49.600;8.746;2022-07-29T08:44:42;27.60;46.00
28548;DHT22;15750;49.600;8.746;2022-07-29T08:47:29;27.60;45.80
28548;DHT22;15750;49.600;8.746;2022-07-29T08:50:17;27.60;45.90
28548;DHT22;15750;49.600;8.746;2022-07-29T08:53:06;27.60;46.00
28548;DHT22;15750;49.600;8.746;2022-07-29T08:55:55;27.60;46.20
28548;DHT22;15750;49.600;8.746;2022-07-29T08:58:43;27.60;46.00
28548;DHT22;15750;49.600;8.746;2022-07-29T09:01:37;27.60;46.30
28548;DHT22;15750;49.600;8.746;2022-07-29T09:04:32;27.60;46.50
28548;DHT22;15750;49.600;8.746;2022-07-29T09:07:21;27.70;46.70
28548;DHT22;15750;49.600;8.746;2022-07-29T09:10:10;27.70;46.90
28548;DHT22;15750;49.600;8.746;2022-07-29T09:12:58;27.70;47.20
28548;DHT22;15750;49.600;8.746;2022-07-29T09:15:45;27.70;47.00
28548;DHT22;15750;49.600;8.746;2022-07-29T09:18:38;27.70;47.10
28548;DHT22;15750;49.600;8.746;2022-07-29T09:21:40;27.70;47.10
28548;DHT22;15750;49.600;8.746;2022-07-29T09:24:48;27.80;47.20
28548;DHT22;15750;49.600;8.746;2022-07-29T09:27:37;27.80;47.00
28548;DHT22;15750;49.600;8.746;2022-07-29T09:30:25;27.80;46.90
28548;DHT22;15750;49.600;8.746;2022-07-29T09:33:16;27.90;47.10
28548;DHT22;15750;49.600;8.746;2022-07-29T09:36:05;27.90;47.20
28548;DHT22;15750;49.600;8.746;2022-07-29T09:38:57;27.90;47.60
28548;DHT22;15750;49.600;8.746;2022-07-29T09:41:46;27.90;47.80
28548;DHT22;15750;49.600;8.746;2022-07-29T09:44:44;27.90;47.60
28548;DHT22;15750;49.600;8.746;2022-07-29T09:47:45;28.00;48.00
28548;DHT22;15750;49.600;8.746;2022-07-29T09:50:36;28.00;47.90
28548;DHT22;15750;49.600;8.746;2022-07-29T09:53:31;28.00;47.60
28548;DHT22;15750;49.600;8.746;2022-07-29T09:56:19;28.00;48.00
28548;DHT22;15750;49.600;8.746;2022-07-29T09:59:06;28.10;47.70
28548;DHT22;15750;49.600;8.746;2022-07-29T10:01:55;28.10;47.60
28548;DHT22;15750;49.600;8.746;2022-07-29T10:04:43;28.10;47.50
28548;DHT22;15750;49.600;8.746;2022-07-29T10:07:44;28.10;47.50
28548;DHT22;15750;49.600;8.746;2022-07-29T10:10:39;28.10;47.80
28548;DHT22;15750;49.600;8.746;2022-07-29T10:13:28;28.10;47.50
28548;DHT22;15750;49.600;8.746;2022-07-29T10:16:16;28.20;47.70
28548;DHT22;15750;49.600;8.746;2022-07-29T10:19:05;28.20;47.70
28548;DHT22;15750;49.600;8.746;2022-07-29T10:21:52;28.20;47.40
28548;DHT22;15750;49.600;8.746;2022-07-29T10:24:42;28.20;47.30
28548;DHT22;15750;49.600;8.746;2022-07-29T10:27:30;28.30;47.70
28548;DHT22;15750;49.600;8.746;2022-07-29T10:30:19;28.30;47.70
28548;DHT22;15750;49.600;8.746;2022-07-29T10:33:28;28.30;47.80
28548;DHT22;15750;49.600;8.746;2022-07-29T10:36:41;28.40;47.70
28548;DHT22;15750;49.600;8.746;2022-07-29T10:39:48;28.40;47.40
28548;DHT22;15750;49.600;8.746;2022-07-29T10:42:44;28.50;47.70
28548;DHT22;15750;49.600;8.746;2022-07-29T10:45:32;28.50;48.00
28548;DHT22;15750;49.600;8.746;2022-07-29T10:48:21;28.60;47.90
28548;DHT22;15750;49.600;8.746;2022-07-29T10:51:09;28.70;48.00
28548;DHT22;15750;49.600;8.746;2022-07-29T10:53:59;28.70;47.80
28548;DHT22;15750;49.600;8.746;2022-07-29T10:56:52;28.80;47.50
28548;DHT22;15750;49.600;8.746;2022-07-29T10:59:39;28.90;47.60
28548;DHT22;15750;49.600;8.746;2022-07-29T11:02:45;28.90;47.10
28548;DHT22;15750;49.600;8.746;2022-07-29T11:05:57;29.00;47.20
28548;DHT22;15750;49.600;8.746;2022-07-29T11:08:45;29.00;46.90
28548;DHT22;15750;49.600;8.746;2022-07-29T11:11:35;29.10;46.90
28548;DHT22;15750;49.600;8.746;2022-07-29T11:14:57;29.10;46.70
28548;DHT22;15750;49.600;8.746;2022-07-29T11:18:04;29.10;47.00
28548;DHT22;15750;49.600;8.746;2022-07-29T11:21:02;29.10;47.10
28548;DHT22;15750;49.600;8.746;2022-07-29T11:24:11;29.10;46.80
28548;DHT22;15750;49.600;8.746;2022-07-29T11:27:15;29.10;46.80
28548;DHT22;15750;49.600;8.746;2022-07-29T11:30:07;29.10;46.60
28548;DHT22;15750;49.600;8.746;2022-07-29T11:32:54;29.10;46.60
28548;DHT22;15750;49.600;8.746;2022-07-29T11:35:42;29.10;46.60
28548;DHT22;15750;49.600;8.746;2022-07-29T11:38:45;29.10;46.70
28548;DHT22;15750;49.600;8.746;2022-07-29T11:41:32;29.10;46.80
28548;DHT22;15750;49.600;8.746;2022-07-29T11:44:53;29.00;46.20
28548;DHT22;15750;49.600;8.746;2022-07-29T11:47:48;29.00;46.30
28548;DHT22;15750;49.600;8.746;2022-07-29T11:50:38;29.10;46.90
28548;DHT22;15750;49.600;8.746;2022-07-29T11:53:29;29.10;47.10
28548;DHT22;15750;49.600;8.746;2022-07-29T11:56:20;29.00;46.60
28548;DHT22;15750;49.600;8.746;2022-07-29T11:59:10;29.10;46.60
28548;DHT22;15750;49.600;8.746;2022-07-29T12:02:01;29.10;46.50
28548;DHT22;15750;49.600;8.746;2022-07-29T12:05:09;29.10;46.90
28548;DHT22;15750;49.600;8.746;2022-07-29T12:08:08;29.10;46.40
28548;DHT22;15750;49.600;8.746;2022-07-29T12:10:59;29.10;46.50
28548;DHT22;15750;49.600;8.746;2022-07-29T12:13:48;29.10;46.50
28548;DHT22;15750;49.600;8.746;2022-07-29T12:16:36;29.10;46.70
28548;DHT22;15750;49.600;8.746;2022-07-29T12:19:26;29.10;46.80
28548;DHT22;15750;49.600;8.746;2022-07-29T12:22:24;29.10;46.80
28548;DHT22;15750;49.600;8.746;2022-07-29T12:25:13;29.10;46.70
28548;DHT22;15750;49.600;8.746;2022-07-29T12:28:18;29.10;46.40
28548;DHT22;15750;49.600;8.746;2022-07-29T12:31:13;29.10;46.50
28548;DHT22;15750;49.600;8.746;2022-07-29T12:34:23;29.10;46.50
28548;DHT22;15750;49.600;8.746;2022-07-29T12:37:12;29.10;46.50
28548;DHT22;15750;49.600;8.746;2022-07-29T12:39:59;29.10;46.60
28548;DHT22;15750;49.600;8.746;2022-07-29T12:43:05;29.10;46.70
28548;DHT22;15750;49.600;8.746;2022-07-29T12:45:56;29.10;46.50
28548;DHT22;15750;49.600;8.746;2022-07-29T12:48:44;29.10;46.40
28548;DHT22;15750;49.600;8.746;2022-07-29T12:51:33;29.10;46.50
28548;DHT22;15750;49.600;8.746;2022-07-29T12:54:23;29.10;46.50
28548;DHT22;15750;49.600;8.746;2022-07-29T12:57:11;29.10;46.40
28548;DHT22;15750;49.600;8.746;2022-07-29T13:00:08;29.10;46.50
28548;DHT22;15750;49.600;8.746;2022-07-29T13:02:58;29.20;46.50
28548;DHT22;15750;49.600;8.746;2022-07-29T13:05:46;29.20;46.40
28548;DHT22;15750;49.600;8.746;2022-07-29T13:08:34;29.20;46.50
28548;DHT22;15750;49.600;8.746;2022-07-29T13:11:30;29.20;46.30
28548;DHT22;15750;49.600;8.746;2022-07-29T13:14:31;29.20;46.30
28548;DHT22;15750;49.600;8.746;2022-07-29T13:17:20;29.20;46.10
28548;DHT22;15750;49.600;8.746;2022-07-29T13:20:10;29.20;45.80
28548;DHT22;15750;49.600;8.746;2022-07-29T13:23:00;29.20;45.60
28548;DHT22;15750;49.600;8.746;2022-07-29T13:25:48;29.20;45.70
28548;DHT22;15750;49.600;8.746;2022-07-29T13:28:37;29.20;45.70
28548;DHT22;15750;49.600;8.746;2022-07-29T13:31:28;29.20;45.80
28548;DHT22;15750;49.600;8.746;2022-07-29T13:34:16;29.20;45.50
28548;DHT22;15750;49.600;8.746;2022-07-29T13:37:05;29.20;45.60
28548;DHT22;15750;49.600;8.746;2022-07-29T13:39:52;29.20;45.60
28548;DHT22;15750;49.600;8.746;2022-07-29T13:42:40;29.20;45.60
28548;DHT22;15750;49.600;8.746;2022-07-29T13:45:29;29.20;45.60
28548;DHT22;15750;49.600;8.746;2022-07-29T13:48:16;29.20;45.60
28548;DHT22;15750;49.600;8.746;2022-07-29T13:51:03;29.20;45.50
28548;DHT22;15750;49.600;8.746;2022-07-29T13:53:51;29.20;45.50
28548;DHT22;15750;49.600;8.746;2022-07-29T13:56:38;29.20;45.50
28548;DHT22;15750;49.600;8.746;2022-07-29T13:59:25;29.20;45.50
28548;DHT22;15750;49.600;8.746;2022-07-29T14:02:14;29.20;45.50
28548;DHT22;15750;49.600;8.746;2022-07-29T14:05:01;29.20;45.40
28548;DHT22;15750;49.600;8.746;2022-07-29T14:07:53;29.10;45.50
28548;DHT22;15750;49.600;8.746;2022-07-29T14:10:40;29.20;45.60
28548;DHT22;15750;49.600;8.746;2022-07-29T14:13:28;29.10;45.50
28548;DHT22;15750;49.600;8.746;2022-07-29T14:16:16;29.10;45.20
28548;DHT22;15750;49.600;8.746;2022-07-29T14:19:05;29.10;45.10
28548;DHT22;15750;49.600;8.746;2022-07-29T14:21:53;29.10;44.80
28548;DHT22;15750;49.600;8.746;2022-07-29T14:24:42;29.10;44.80
28548;DHT22;15750;49.600;8.746;2022-07-29T14:27:30;29.10;44.60
28548;DHT22;15750;49.600;8.746;2022-07-29T14:30:23;29.20;44.50
28548;DHT22;15750;49.600;8.746;2022-07-29T14:33:10;29.20;44.40
28548;DHT22;15750;49.600;8.746;2022-07-29T14:35:59;29.20;44.50
28548;DHT22;15750;49.600;8.746;2022-07-29T14:38:46;29.20;44.10
28548;DHT22;15750;49.600;8.746;2022-07-29T14:41:33;29.20;44.30
28548;DHT22;15750;49.600;8.746;2022-07-29T14:44:20;29.20;44.40
28548;DHT22;15750;49.600;8.746;2022-07-29T14:47:08;29.20;44.20
28548;DHT22;15750;49.600;8.746;2022-07-29T14:49:55;29.20;44.20
28548;DHT22;15750;49.600;8.746;2022-07-29T14:52:44;29.20;44.20
28548;DHT22;15750;49.600;8.746;2022-07-29T14:55:33;29.20;43.90
28548;DHT22;15750;49.600;8.746;2022-07-29T14:58:21;29.20;43.90
28548;DHT22;15750;49.600;8.746;2022-07-29T15:01:08;29.30;43.90
28548;DHT22;15750;49.600;8.746;2022-07-29T15:03:55;29.30;43.80
28548;DHT22;15750;49.600;8.746;2022-07-29T15:06:44;29.30;43.80
28548;DHT22;15750;49.600;8.746;2022-07-29T15:09:33;29.30;43.60
28548;DHT22;15750;49.600;8.746;2022-07-29T15:12:34;29.30;43.20
28548;DHT22;15750;49.600;8.746;2022-07-29T15:15:21;29.30;43.30
28548;DHT22;15750;49.600;8.746;2022-07-29T15:18:09;29.30;43.10
28548;DHT22;15750;49.600;8.746;2022-07-29T15:20:56;29.30;43.40
28548;DHT22;15750;49.600;8.746;2022-07-29T15:23:46;29.30;43.10
28548;DHT22;15750;49.600;8.746;2022-07-29T15:26:34;29.30;43.10
28548;DHT22;15750;49.600;8.746;2022-07-29T15:29:22;29.30;43.20
28548;DHT22;15750;49.600;8.746;2022-07-29T15:32:10;29.30;43.20
28548;DHT22;15750;49.600;8.746;2022-07-29T15:34:57;29.30;43.20
28548;DHT22;15750;49.600;8.746;2022-07-29T15:37:45;29.30;43.30
28548;DHT22;15750;49.600;8.746;2022-07-29T15:40:34;29.20;43.30
28548;DHT22;15750;49.600;8.746;2022-07-29T15:43:24;29.20;43.20
28548;DHT22;15750;49.600;8.746;2022-07-29T15:46:13;29.20;43.30
28548;DHT22;15750;49.600;8.746;2022-07-29T15:49:18;29.20;43.30
28548;DHT22;15750;49.600;8.746;2022-07-29T15:52:08;29.20;43.30
28548;DHT22;15750;49.600;8.746;2022-07-29T15:54:57;29.10;43.30
28548;DHT22;15750;49.600;8.746;2022-07-29T15:57:44;29.10;43.20
28548;DHT22;15750;49.600;8.746;2022-07-29T16:00:33;29.10;43.30
28548;DHT22;15750;49.600;8.746;2022-07-29T16:03:21;29.10;43.20
28548;DHT22;15750;49.600;8.746;2022-07-29T16:06:09;29.10;43.20
28548;DHT22;15750;49.600;8.746;2022-07-29T16:08:56;29.00;43.20
28548;DHT22;15750;49.600;8.746;2022-07-29T16:11:45;29.00;43.40
28548;DHT22;15750;49.600;8.746;2022-07-29T16:14:35;29.00;43.60
28548;DHT22;15750;49.600;8.746;2022-07-29T16:17:24;29.00;43.80
28548;DHT22;15750;49.600;8.746;2022-07-29T16:20:12;29.00;44.10
28548;DHT22;15750;49.600;8.746;2022-07-29T16:23:00;29.00;44.70
28548;DHT22;15750;49.600;8.746;2022-07-29T16:25:47;28.90;45.00
28548;DHT22;15750;49.600;8.746;2022-07-29T16:28:45;28.90;45.40
28548;DHT22;15750;49.600;8.746;2022-07-29T16:31:33;28.90;45.70
28548;DHT22;15750;49.600;8.746;2022-07-29T16:34:22;28.80;46.10
28548;DHT22;15750;49.600;8.746;2022-07-29T16:37:09;28.80;46.10
28548;DHT22;15750;49.600;8.746;2022-07-29T16:39:56;28.70;46.10
28548;DHT22;15750;49.600;8.746;2022-07-29T16:42:44;28.70;46.20
28548;DHT22;15750;49.600;8.746;2022-07-29T16:45:32;28.60;46.60
28548;DHT22;15750;49.600;8.746;2022-07-29T16:48:31;28.60;47.00
28548;DHT22;15750;49.600;8.746;2022-07-29T16:51:21;28.60;47.90
28548;DHT22;15750;49.600;8.746;2022-07-29T16:54:09;28.50;48.30
28548;DHT22;15750;49.600;8.746;2022-07-29T16:56:56;28.40;48.20
28548;DHT22;15750;49.600;8.746;2022-07-29T16:59:46;28.40;48.60
28548;DHT22;15750;49.600;8.746;2022-07-29T17:02:35;28.30;48.80
28548;DHT22;15750;49.600;8.746;2022-07-29T17:05:23;28.20;48.90
28548;DHT22;15750;49.600;8.746;2022-07-29T17:08:12;28.10;49.40
28548;DHT22;15750;49.600;8.746;2022-07-29T17:10:59;28.00;49.80
28548;DHT22;15750;49.600;8.746;2022-07-29T17:13:46;28.00;50.10
28548;DHT22;15750;49.600;8.746;2022-07-29T17:16:34;27.90;50.40
28548;DHT22;15750;49.600;8.746;2022-07-29T17:19:21;27.80;50.70
28548;DHT22;15750;49.600;8.746;2022-07-29T17:22:09;27.80;51.00
28548;DHT22;15750;49.600;8.746;2022-07-29T17:25:06;27.70;51.30
28548;DHT22;15750;49.600;8.746;2022-07-29T17:27:54;27.70;52.10
28548;DHT22;15750;49.600;8.746;2022-07-29T17:30:45;27.70;52.00
28548;DHT22;15750;49.600;8.746;2022-07-29T17:33:33;27.70;52.00
28548;DHT22;15750;49.600;8.746;2022-07-29T17:36:20;27.70;52.10
28548;DHT22;15750;49.600;8.746;2022-07-29T17:39:11;27.60;51.90
28548;DHT22;15750;49.600;8.746;2022-07-29T17:42:00;27.60;51.80
28548;DHT22;15750;49.600;8.746;2022-07-29T17:44:47;27.60;52.20
28548;DHT22;15750;49.600;8.746;2022-07-29T17:47:34;27.60;52.20
28548;DHT22;15750;49.600;8.746;2022-07-29T17:50:23;27.60;52.70
28548;DHT22;15750;49.600;8.746;2022-07-29T17:53:10;27.60;52.60
28548;DHT22;15750;49.600;8.746;2022-07-29T17:56:01;27.60;52.80
28548;DHT22;15750;49.600;8.746;2022-07-29T17:58:51;27.60;52.80